Time;durP1;ratioP1;P1;durP2;ratioP2;P2;SDS_P1;SDS_P2;PMS_P1;PMS_P2;Temp;Humidity;BMP_temperature;BMP_pressure;BME280_temperature;BME280_humidity;BME280_pressure;Samples;Min_cycle;Max_cycle;Signal;HPM_P1;HPM_P2
2022/07/20 00:02:07;;;;;;;1.33;0.75;;;;;;;33.77;22.67;98637.69;4997697;28;20041;-81
2022/07/20 00:04:33;;;;;;;1.52;0.95;;;;;;;33.69;23.14;98642.19;5002206;28;20030;-81
2022/07/20 00:06:59;;;;;;;1.23;0.90;;;;;;;33.68;22.76;98641.38;5014100;28;20097;-81
2022/07/20 00:12:10;;;;;;;0.80;0.70;;;;;;;33.94;22.62;98635.94;5005075;28;20045;-81
2022/07/20 00:14:36;;;;;;;2.20;0.82;;;;;;;33.93;22.63;98632.34;4994119;28;20034;-80
2022/07/20 00:17:02;;;;;;;1.85;1.00;;;;;;;34.11;22.85;98631.38;4999201;28;20422;-80
2022/07/20 00:19:28;;;;;;;0.60;0.50;;;;;;;34.18;22.68;98630.22;4995016;28;20406;-80
2022/07/20 00:21:54;;;;;;;1.30;0.80;;;;;;;34.24;21.96;98628.25;4992833;28;20046;-81
2022/07/20 00:24:20;;;;;;;1.33;1.10;;;;;;;34.32;22.13;98629.44;4998183;28;20049;-80
2022/07/20 00:26:46;;;;;;;1.05;0.80;;;;;;;34.22;22.21;98622.25;4988169;28;20109;-81
2022/07/20 00:29:13;;;;;;;0.95;0.80;;;;;;;33.77;22.80;98623.44;4993291;28;20042;-81
2022/07/20 00:31:39;;;;;;;1.80;0.70;;;;;;;33.79;22.80;98630.25;4995046;28;20382;-81
2022/07/20 00:34:05;;;;;;;1.48;1.08;;;;;;;33.89;22.33;98631.72;5000259;28;20034;-80
2022/07/20 00:36:31;;;;;;;0.63;0.60;;;;;;;33.93;22.34;98626.63;5000821;28;20033;-81
2022/07/20 00:38:57;;;;;;;0.80;0.70;;;;;;;33.85;22.56;98628.28;4992253;28;20078;-80
2022/07/20 00:41:23;;;;;;;1.60;0.88;;;;;;;33.93;22.53;98620.94;5005391;28;20041;-80
2022/07/20 00:43:57;;;;;;;1.15;0.82;;;;;;;33.80;22.23;98620.41;4995328;28;20058;-80
2022/07/20 00:46:24;;;;;;;1.10;0.85;;;;;;;33.79;22.90;98623.75;4997416;28;20026;-81
2022/07/20 00:48:50;;;;;;;1.77;1.00;;;;;;;33.66;22.63;98621.16;4993459;28;20038;-81
2022/07/20 00:51:17;;;;;;;0.77;0.70;;;;;;;33.43;22.80;98628.44;4992217;28;20030;-80
2022/07/20 00:53:44;;;;;;;0.80;0.65;;;;;;;33.40;23.17;98620.84;4995141;28;20038;-80
2022/07/20 00:56:11;;;;;;;0.70;0.70;;;;;;;33.61;22.64;98626.75;4994718;28;20026;-80
2022/07/20 00:58:37;;;;;;;1.50;0.70;;;;;;;33.57;22.67;98624.06;4990264;28;20050;-81
2022/07/20 01:01:03;;;;;;;1.38;1.05;;;;;;;33.46;22.75;98625.88;4997586;28;20237;-80
2022/07/20 01:03:30;;;;;;;2.08;0.75;;;;;;;33.48;22.62;98623.31;4995714;28;20038;-80
2022/07/20 01:05:56;;;;;;;1.80;0.80;;;;;;;33.42;22.55;98629.69;4992061;28;20040;-80
2022/07/20 01:08:24;;;;;;;1.15;0.80;;;;;;;33.32;22.71;98627.41;4999046;28;20029;-80
2022/07/20 01:10:50;;;;;;;0.70;0.70;;;;;;;33.16;23.28;98624.97;4990431;28;20046;-80
2022/07/20 01:13:16;;;;;;;2.92;0.82;;;;;;;33.10;23.50;98622.00;4998905;28;20101;-80
2022/07/20 01:15:42;;;;;;;1.23;0.80;;;;;;;32.86;23.58;98626.06;4999432;28;20026;-80
2022/07/20 01:18:08;;;;;;;2.30;1.08;;;;;;;32.92;23.75;98627.75;4985875;28;20039;-80
2022/07/20 01:20:36;;;;;;;1.55;0.70;;;;;;;32.95;23.80;98620.31;4977300;28;20356;-80
2022/07/20 01:23:02;;;;;;;1.10;0.90;;;;;;;33.14;23.35;98621.81;4993892;28;20034;-80
2022/07/20 01:25:28;;;;;;;1.30;0.77;;;;;;;33.16;23.28;98619.28;4994513;28;20061;-80
2022/07/20 01:27:57;;;;;;;1.35;0.90;;;;;;;33.30;22.99;98619.31;4994232;28;20046;-80
2022/07/20 01:30:23;;;;;;;3.60;0.93;;;;;;;33.18;23.21;98625.28;4994624;28;20030;-80
2022/07/20 01:32:49;;;;;;;2.05;1.17;;;;;;;33.15;23.35;98621.34;4994604;28;20034;-80
2022/07/20 01:35:15;;;;;;;1.05;0.80;;;;;;;33.26;23.25;98621.56;4993973;28;20487;-80
2022/07/20 01:37:41;;;;;;;1.00;0.70;;;;;;;33.36;23.04;98620.25;4994252;28;20081;-80
2022/07/20 01:40:08;;;;;;;1.60;0.85;;;;;;;33.21;23.41;98622.22;4991358;28;20545;-80
2022/07/20 01:42:34;;;;;;;0.98;0.65;;;;;;;33.27;22.97;98625.22;4984551;28;20100;-80
2022/07/20 01:45:00;;;;;;;0.98;0.77;;;;;;;33.12;22.75;98625.13;4995074;28;20026;-80
2022/07/20 01:47:26;;;;;;;1.50;0.80;;;;;;;32.98;23.21;98619.38;4994204;28;20093;-81
2022/07/20 01:49:52;;;;;;;0.95;0.63;;;;;;;33.07;23.38;98617.25;4994653;28;20026;-81
2022/07/20 01:52:18;;;;;;;1.13;0.75;;;;;;;33.02;23.22;98617.94;4994127;28;20485;-80
2022/07/20 01:54:44;;;;;;;3.45;0.85;;;;;;;33.12;22.75;98621.50;4984857;28;20031;-81
2022/07/20 01:57:10;;;;;;;2.13;0.77;;;;;;;33.33;22.67;98623.25;4993220;28;20533;-81
2022/07/20 01:59:36;;;;;;;1.05;0.93;;;;;;;33.46;22.62;98623.03;4992544;28;20026;-80
2022/07/20 02:02:03;;;;;;;0.60;0.60;;;;;;;33.49;22.50;98619.22;4993480;28;20046;-81
2022/07/20 02:04:29;;;;;;;1.10;0.70;;;;;;;33.51;22.27;98616.66;4993524;28;20029;-80
2022/07/20 02:06:55;;;;;;;1.42;0.75;;;;;;;33.55;22.28;98620.94;4993981;28;20084;-81
2022/07/20 02:09:21;;;;;;;1.85;1.63;;;;;;;33.46;22.57;98620.97;4999058;28;20041;-81
2022/07/20 02:11:47;;;;;;;1.20;0.70;;;;;;;33.08;22.82;98624.53;4993794;28;20038;-80
2022/07/20 02:14:14;;;;;;;1.58;0.77;;;;;;;32.85;23.59;98622.41;4993591;28;20088;-80
2022/07/20 02:16:40;;;;;;;1.10;0.60;;;;;;;32.94;23.11;98627.28;4993984;28;20026;-80
2022/07/20 02:19:06;;;;;;;2.38;0.75;;;;;;;32.83;23.26;98624.97;4996181;28;20042;-80
2022/07/20 02:21:32;;;;;;;1.70;0.95;;;;;;;32.78;23.62;98625.63;5005670;28;20045;-80
2022/07/20 02:23:58;;;;;;;0.82;0.73;;;;;;;32.71;23.60;98621.06;4993726;28;20407;-81
2022/07/20 02:26:25;;;;;;;0.98;0.60;;;;;;;32.79;23.46;98620.72;4997146;28;20505;-81
2022/07/20 02:28:52;;;;;;;1.45;0.98;;;;;;;32.79;23.51;98627.19;4993380;28;20034;-81
2022/07/20 02:31:18;;;;;;;1.23;0.80;;;;;;;32.56;23.89;98627.91;4994861;28;20038;-81
2022/07/20 02:33:45;;;;;;;0.93;0.88;;;;;;;32.72;23.29;98628.31;4997304;28;20030;-80
2022/07/20 02:36:12;;;;;;;0.65;0.60;;;;;;;32.77;23.42;98624.03;4974464;28;20394;-81
2022/07/20 02:38:38;;;;;;;1.98;0.55;;;;;;;32.91;23.10;98626.16;5004363;28;20027;-80
2022/07/20 02:41:04;;;;;;;1.35;0.80;;;;;;;32.70;23.58;98632.91;4979190;28;20050;-80
2022/07/20 02:43:30;;;;;;;0.80;0.70;;;;;;;32.55;23.82;98626.34;4991763;28;20030;-81
2022/07/20 02:45:56;;;;;;;1.30;1.02;;;;;;;32.54;23.81;98628.41;4995722;28;20066;-80
2022/07/20 02:48:23;;;;;;;1.33;1.00;;;;;;;32.66;23.71;98632.28;4993287;28;20389;-80
2022/07/20 02:50:49;;;;;;;0.80;0.50;;;;;;;32.61;23.10;98632.94;4991642;28;20054;-80
2022/07/20 02:53:15;;;;;;;1.95;0.70;;;;;;;32.48;23.75;98626.66;4991907;28;20475;-81
2022/07/20 02:55:43;;;;;;;0.93;0.63;;;;;;;32.42;23.89;98631.38;4989588;28;20125;-81
2022/07/20 02:58:10;;;;;;;1.67;0.90;;;;;;;32.45;23.63;98630.44;4993582;28;20515;-81
2022/07/20 03:00:37;;;;;;;0.77;0.75;;;;;;;32.57;23.72;98623.81;5002460;28;20038;-81
2022/07/20 03:03:04;;;;;;;1.45;0.80;;;;;;;32.47;23.84;98630.75;4992808;28;20046;-81
2022/07/20 03:05:31;;;;;;;3.10;0.98;;;;;;;32.39;23.79;98621.78;4995874;28;20072;-81
2022/07/20 03:07:57;;;;;;;1.67;0.95;;;;;;;32.40;23.65;98622.56;4996427;28;20117;-80
2022/07/20 03:10:23;;;;;;;1.48;0.70;;;;;;;32.42;23.79;98622.88;4997904;28;20025;-80
2022/07/20 03:12:50;;;;;;;1.58;0.50;;;;;;;32.52;23.86;98619.56;4997047;28;20112;-81
2022/07/20 03:15:16;;;;;;;1.35;0.93;;;;;;;32.68;23.71;98622.03;5000860;28;20033;-80
2022/07/20 03:17:49;;;;;;;1.05;0.80;;;;;;;32.69;23.04;98629.28;4991552;28;20065;-81
2022/07/20 03:20:28;;;;;;;2.25;0.80;;;;;;;32.74;23.22;98622.94;4992145;28;20052;-81
2022/07/20 03:22:56;;;;;;;1.15;0.75;;;;;;;32.82;23.28;98626.22;4990403;28;20085;-80
2022/07/20 03:25:23;;;;;;;0.98;0.75;;;;;;;32.67;23.83;98633.88;4995372;28;20490;-80
2022/07/20 03:27:52;;;;;;;1.52;0.80;;;;;;;32.65;23.76;98633.59;4992193;28;20085;-81
2022/07/20 03:30:18;;;;;;;2.72;0.80;;;;;;;32.84;23.34;98637.13;4997940;28;20038;-80
2022/07/20 03:32:44;;;;;;;2.38;0.80;;;;;;;32.99;23.18;98638.78;5006002;28;20066;-81
2022/07/20 03:35:10;;;;;;;0.85;0.80;;;;;;;33.28;23.10;98636.09;5005129;28;20118;-80
2022/07/20 03:37:36;;;;;;;0.93;0.70;;;;;;;33.53;22.94;98640.56;4998232;28;20065;-80
2022/07/20 03:40:04;;;;;;;1.48;0.63;;;;;;;33.55;22.78;98652.25;4991425;28;20085;-80
2022/07/20 03:42:31;;;;;;;0.82;0.60;;;;;;;33.61;22.98;98646.69;4987070;28;20030;-80
2022/07/20 03:44:57;;;;;;;0.80;0.80;;;;;;;33.34;22.83;98648.41;4994248;28;20479;-80
2022/07/20 03:47:24;;;;;;;0.75;0.63;;;;;;;33.24;23.45;98658.28;4990084;28;20031;-80
2022/07/20 03:49:50;;;;;;;2.47;0.82;;;;;;;33.53;23.56;98649.13;4994192;28;20038;-80
2022/07/20 03:52:18;;;;;;;1.55;0.70;;;;;;;33.93;23.29;98651.47;4996300;28;20025;-80
2022/07/20 03:54:44;;;;;;;0.80;0.80;;;;;;;34.47;22.71;98645.25;4998089;28;20038;-80
2022/07/20 03:57:10;;;;;;;1.33;0.70;;;;;;;34.78;22.60;98653.31;5001068;28;20022;-81
2022/07/20 03:59:36;;;;;;;1.48;0.80;;;;;;;34.73;22.31;98651.16;4995322;28;20026;-81
2022/07/20 04:02:04;;;;;;;1.27;0.93;;;;;;;34.59;22.78;98655.59;4990405;28;20033;-80
2022/07/20 04:04:30;;;;;;;1.63;0.80;;;;;;;34.58;22.62;98658.97;5006279;28;20096;-81
2022/07/20 04:06:57;;;;;;;0.60;0.60;;;;;;;34.82;22.71;98653.91;4995703;28;20030;-80
2022/07/20 04:12:11;;;;;;;3.33;0.80;;;;;;;35.43;22.34;98660.53;4988613;28;20045;-80
2022/07/20 04:14:37;;;;;;;1.63;0.80;;;;;;;35.39;22.78;98657.13;4995727;28;20037;-80
2022/07/20 04:17:04;;;;;;;2.20;1.15;;;;;;;35.41;22.94;98663.13;5008863;28;20030;-80
2022/07/20 04:19:30;;;;;;;3.70;0.80;;;;;;;35.57;22.95;98673.25;4996608;28;20498;-81
2022/07/20 04:21:59;;;;;;;1.23;1.05;;;;;;;35.74;22.85;98665.66;4988226;28;20034;-80
2022/07/20 04:24:25;;;;;;;1.38;0.82;;;;;;;35.90;22.75;98673.66;4992180;28;20538;-81
2022/07/20 04:26:52;;;;;;;0.70;0.68;;;;;;;35.94;22.90;98668.53;4988228;28;20431;-81
2022/07/20 04:29:19;;;;;;;1.13;0.73;;;;;;;35.99;22.58;98674.31;4988832;28;20066;-81
2022/07/20 04:31:45;;;;;;;0.93;0.70;;;;;;;36.03;22.75;98677.75;4989491;28;20027;-82
2022/07/20 04:34:11;;;;;;;1.00;0.80;;;;;;;36.07;22.50;98674.66;4987932;28;20117;-80
2022/07/20 04:36:37;;;;;;;1.13;0.70;;;;;;;36.08;21.63;98659.84;4988395;28;20034;-80
2022/07/20 04:39:03;;;;;;;0.73;0.60;;;;;;;35.96;23.09;98668.78;4986597;28;20455;-80
2022/07/20 04:41:29;;;;;;;1.30;0.70;;;;;;;35.80;23.35;98670.16;4995255;28;20038;-80
2022/07/20 04:43:56;;;;;;;0.80;0.73;;;;;;;35.78;23.31;98669.88;5000690;28;20042;-80
2022/07/20 04:46:22;;;;;;;2.22;0.65;;;;;;;35.89;23.44;98672.88;4990800;28;20057;-80
2022/07/20 04:48:48;;;;;;;2.25;0.80;;;;;;;36.12;22.73;98670.28;4988422;28;20126;-81
2022/07/20 04:51:15;;;;;;;0.77;0.60;;;;;;;36.42;23.29;98669.56;4977672;28;20042;-80
2022/07/20 04:53:41;;;;;;;2.15;0.80;;;;;;;36.60;22.54;98666.38;4981967;28;20113;-80
2022/07/20 04:56:09;;;;;;;1.48;0.70;;;;;;;36.65;21.95;98673.44;4995302;28;20044;-81
2022/07/20 04:58:36;;;;;;;2.00;0.70;;;;;;;36.81;22.80;98669.19;4994962;28;20474;-81
2022/07/20 05:01:02;;;;;;;2.05;0.63;;;;;;;36.81;23.16;98680.63;4994370;28;20077;-81
2022/07/20 05:03:28;;;;;;;0.77;0.55;;;;;;;36.86;22.92;98677.00;4994560;28;20061;-79
2022/07/20 05:05:54;;;;;;;1.05;0.70;;;;;;;37.03;22.24;98675.88;4994727;28;20037;-80
2022/07/20 05:08:20;;;;;;;1.55;0.68;;;;;;;37.24;22.20;98677.34;4993003;28;20402;-80
2022/07/20 05:10:46;;;;;;;1.38;0.70;;;;;;;37.59;22.34;98671.31;4989080;28;20037;-81
2022/07/20 05:13:12;;;;;;;2.13;0.70;;;;;;;37.77;21.40;98675.81;4988078;28;20076;-81
2022/07/20 05:15:38;;;;;;;1.23;0.82;;;;;;;37.52;21.01;98673.88;5014396;28;20033;-80
2022/07/20 05:18:04;;;;;;;2.15;1.00;;;;;;;37.64;20.95;98679.16;5012671;28;20061;-81
2022/07/20 05:20:31;;;;;;;1.10;0.85;;;;;;;37.78;21.63;98675.31;4995151;28;20042;-81
2022/07/20 05:22:57;;;;;;;0.95;0.70;;;;;;;37.90;21.09;98679.03;4993296;28;20081;-79
2022/07/20 05:25:23;;;;;;;2.17;0.80;;;;;;;37.96;22.18;98679.81;4993779;28;20451;-81
2022/07/20 05:27:49;;;;;;;2.53;0.80;;;;;;;38.01;22.41;98677.00;4994868;28;20039;-80
2022/07/20 05:30:15;;;;;;;1.58;0.82;;;;;;;38.14;21.22;98679.34;4994498;28;20518;-81
2022/07/20 05:32:41;;;;;;;0.85;0.70;;;;;;;38.21;21.61;98684.59;4994846;28;20428;-80
2022/07/20 05:35:08;;;;;;;1.02;0.77;;;;;;;38.24;21.68;98682.78;4994010;28;20058;-80
2022/07/20 05:37:35;;;;;;;2.83;0.88;;;;;;;38.32;21.96;98686.75;4993119;28;20031;-79
2022/07/20 05:40:01;;;;;;;0.80;0.80;;;;;;;38.34;21.89;98687.00;4994117;28;20428;-79
2022/07/20 05:42:27;;;;;;;2.72;0.95;;;;;;;38.14;22.44;98690.84;4994296;28;20035;-79
2022/07/20 05:44:53;;;;;;;2.80;1.00;;;;;;;37.97;22.07;98682.16;4994359;28;20068;-79
2022/07/20 05:47:20;;;;;;;1.77;0.90;;;;;;;38.18;22.65;98673.38;5005142;28;20037;-79
2022/07/20 05:49:48;;;;;;;0.98;0.68;;;;;;;38.23;21.94;98676.25;4983452;28;20030;-79
2022/07/20 05:52:15;;;;;;;1.58;0.80;;;;;;;37.92;21.84;98677.22;5013798;28;20068;-79
2022/07/20 05:54:41;;;;;;;1.38;0.90;;;;;;;37.95;22.47;98678.28;4998524;28;20030;-79
2022/07/20 05:57:07;;;;;;;1.35;0.70;;;;;;;37.54;22.38;98682.72;4993840;28;20097;-80
2022/07/20 05:59:34;;;;;;;1.10;0.90;;;;;;;37.87;21.78;98694.41;4993666;28;20054;-79
2022/07/20 06:02:00;;;;;;;1.48;0.80;;;;;;;38.24;22.66;98692.16;4994096;28;20386;-79
2022/07/20 06:04:26;;;;;;;1.02;0.60;;;;;;;38.46;21.21;98686.50;4992619;28;20026;-79
2022/07/20 06:06:52;;;;;;;1.92;0.80;;;;;;;38.88;20.74;98691.28;4991434;28;20038;-79
2022/07/20 06:09:18;;;;;;;0.90;0.70;;;;;;;38.89;20.72;98689.97;5013620;28;20061;-80
2022/07/20 06:11:44;;;;;;;0.88;0.80;;;;;;;39.05;20.70;98699.88;4993259;28;20422;-80
2022/07/20 06:14:10;;;;;;;2.33;0.70;;;;;;;39.16;19.57;98699.91;4993824;28;20026;-80
2022/07/20 06:16:36;;;;;;;1.35;1.10;;;;;;;39.14;21.21;98696.75;4993982;28;20088;-80
2022/07/20 06:19:02;;;;;;;1.42;0.90;;;;;;;39.08;21.41;98707.44;4993473;28;20053;-79
2022/07/20 06:21:28;;;;;;;1.73;0.82;;;;;;;39.51;20.01;98702.97;4994093;28;20034;-79
2022/07/20 06:23:54;;;;;;;1.45;0.90;;;;;;;40.08;19.85;98693.66;5000139;28;20072;-79
2022/07/20 06:26:22;;;;;;;0.80;0.70;;;;;;;39.95;18.89;98696.31;4993636;28;20031;-79
2022/07/20 06:28:48;;;;;;;2.17;0.80;;;;;;;40.17;18.57;98701.22;4992279;28;20563;-80
2022/07/20 06:31:15;;;;;;;0.82;0.82;;;;;;;39.95;19.22;98704.94;4991116;28;20042;-79
2022/07/20 06:33:41;;;;;;;1.30;1.10;;;;;;;39.87;19.22;98710.47;4993802;28;20483;-79
2022/07/20 06:36:07;;;;;;;0.95;0.80;;;;;;;39.89;19.16;98710.72;4993761;28;20042;-78
2022/07/20 06:38:36;;;;;;;2.05;1.08;;;;;;;40.13;20.21;98713.00;5012579;28;20498;-80
2022/07/20 06:41:03;;;;;;;1.13;0.93;;;;;;;39.96;18.91;98713.03;5013332;28;20092;-80
2022/07/20 06:43:29;;;;;;;1.10;0.95;;;;;;;40.11;19.34;98709.88;4997221;28;20479;-81
2022/07/20 06:45:55;;;;;;;1.38;1.00;;;;;;;40.07;19.28;98715.13;4992596;28;20517;-81
2022/07/20 06:48:21;;;;;;;0.65;0.65;;;;;;;40.38;19.29;98711.81;4981648;28;20042;-81
2022/07/20 06:50:48;;;;;;;1.23;1.00;;;;;;;40.94;19.60;98714.38;5014893;28;20034;-80
2022/07/20 06:53:15;;;;;;;1.13;0.70;;;;;;;41.17;17.99;98716.50;4985847;28;20105;-79
2022/07/20 06:55:41;;;;;;;2.90;0.80;;;;;;;41.43;18.49;98716.00;4997588;28;20398;-80
2022/07/20 06:58:08;;;;;;;0.70;0.70;;;;;;;41.62;17.19;98711.09;4996979;28;20089;-79
2022/07/20 07:00:34;;;;;;;1.08;0.82;;;;;;;41.78;16.63;98710.13;4996696;28;20038;-81
2022/07/20 07:03:00;;;;;;;0.95;0.85;;;;;;;41.83;16.80;98717.16;4996621;28;20087;-80
2022/07/20 07:05:26;;;;;;;0.82;0.80;;;;;;;41.82;16.69;98713.53;4996898;28;20034;-80
2022/07/20 07:07:52;;;;;;;1.25;0.88;;;;;;;41.80;16.92;98715.38;4997077;28;20045;-81
2022/07/20 07:10:18;;;;;;;1.67;0.68;;;;;;;41.88;17.49;98708.44;4997082;28;20031;-80
2022/07/20 07:12:45;;;;;;;0.90;0.57;;;;;;;41.92;17.04;98708.91;4997166;28;20041;-81
2022/07/20 07:15:11;;;;;;;0.50;0.50;;;;;;;41.97;16.70;98708.06;4997675;28;20027;-81
2022/07/20 07:17:37;;;;;;;1.02;0.80;;;;;;;41.88;17.56;98714.22;4979820;28;20033;-81
2022/07/20 07:20:04;;;;;;;1.20;0.70;;;;;;;41.92;17.37;98708.13;4996653;28;20556;-81
2022/07/20 07:22:32;;;;;;;1.40;0.70;;;;;;;41.99;16.65;98704.63;4995234;28;20498;-81
2022/07/20 07:24:58;;;;;;;0.60;0.60;;;;;;;41.90;16.50;98702.91;4986607;28;20090;-80
2022/07/20 07:27:24;;;;;;;2.08;0.60;;;;;;;42.08;15.56;98703.50;4990376;28;20054;-80
2022/07/20 07:29:50;;;;;;;1.23;1.00;;;;;;;42.13;15.31;98702.66;4996016;28;20034;-80
2022/07/20 07:32:16;;;;;;;1.10;0.90;;;;;;;42.25;15.01;98706.94;4994209;28;20034;-80
2022/07/20 07:34:42;;;;;;;1.80;0.80;;;;;;;42.28;15.53;98706.63;4996270;28;20030;-81
2022/07/20 07:37:09;;;;;;;2.92;1.00;;;;;;;42.36;15.86;98703.91;4994157;28;20483;-80
2022/07/20 07:39:35;;;;;;;1.25;0.65;;;;;;;41.78;15.48;98707.25;4995407;28;20034;-80
2022/07/20 07:42:01;;;;;;;0.73;0.68;;;;;;;42.03;15.98;98711.66;5000232;28;20026;-81
2022/07/20 07:44:27;;;;;;;1.63;0.73;;;;;;;42.16;14.15;98705.22;4992688;28;20496;-82
2022/07/20 07:46:53;;;;;;;0.70;0.60;;;;;;;42.39;14.77;98715.13;4999061;28;20441;-81
2022/07/20 07:49:20;;;;;;;1.30;0.73;;;;;;;42.51;15.01;98719.47;5016393;28;20040;-81
2022/07/20 07:51:46;;;;;;;1.08;0.70;;;;;;;42.37;15.22;98714.91;4998053;28;20049;-80
2022/07/20 07:54:12;;;;;;;1.25;0.63;;;;;;;42.56;14.94;98712.81;4996459;28;20378;-81
2022/07/20 07:56:38;;;;;;;1.30;0.75;;;;;;;42.73;14.88;98723.34;4996477;28;20383;-82
2022/07/20 07:59:04;;;;;;;2.05;0.60;;;;;;;42.74;14.56;98710.44;4995717;28;20054;-81
2022/07/20 08:01:31;;;;;;;1.10;0.60;;;;;;;42.62;14.66;98725.06;4995336;28;20032;-82
2022/07/20 08:03:57;;;;;;;1.00;0.70;;;;;;;42.69;15.39;98717.88;4996351;28;20034;-82
2022/07/20 08:06:23;;;;;;;1.15;0.70;;;;;;;42.72;14.56;98716.78;4996305;28;20030;-83
2022/07/20 08:08:49;;;;;;;0.88;0.68;;;;;;;42.81;15.91;98718.47;4996164;28;20085;-82
2022/07/20 08:11:17;;;;;;;0.90;0.73;;;;;;;42.92;15.58;98718.34;4995289;28;20030;-81
2022/07/20 08:13:43;;;;;;;0.95;0.73;;;;;;;42.76;13.98;98716.47;4995883;28;20030;-80
2022/07/20 08:16:09;;;;;;;1.70;0.60;;;;;;;42.60;14.05;98710.38;5010210;28;20038;-80
2022/07/20 08:18:35;;;;;;;1.38;0.65;;;;;;;42.61;14.96;98711.97;5015512;28;20482;-80
2022/07/20 08:21:01;;;;;;;0.70;0.70;;;;;;;42.46;15.31;98705.06;5015553;28;20037;-80
2022/07/20 08:23:27;;;;;;;0.73;0.70;;;;;;;42.02;15.89;98706.44;5015509;28;20482;-81
2022/07/20 08:25:53;;;;;;;0.90;0.70;;;;;;;42.22;15.48;98705.91;4997066;28;20027;-81
2022/07/20 08:28:21;;;;;;;1.40;0.50;;;;;;;42.43;16.85;98701.16;4995115;28;20041;-81
2022/07/20 08:30:50;;;;;;;2.88;0.50;;;;;;;42.04;16.83;98709.56;4995720;28;20112;-81
2022/07/20 08:33:16;;;;;;;1.95;0.68;;;;;;;41.69;16.75;98698.19;4995885;28;20030;-82
2022/07/20 08:35:43;;;;;;;0.70;0.60;;;;;;;41.99;15.23;98699.66;4995328;28;20038;-81
2022/07/20 08:38:10;;;;;;;2.15;0.80;;;;;;;41.43;17.99;98700.81;4995772;28;20057;-82
2022/07/20 08:40:38;;;;;;;0.77;0.65;;;;;;;41.63;16.23;98706.88;4995364;28;20129;-82
2022/07/20 08:43:04;;;;;;;1.58;0.73;;;;;;;42.25;15.70;98698.28;4994829;28;20037;-81
2022/07/20 08:45:31;;;;;;;0.60;0.55;;;;;;;42.68;14.78;98707.66;4992044;28;20545;-82
2022/07/20 08:48:01;;;;;;;1.33;0.77;;;;;;;42.95;14.53;98703.56;4994659;28;20482;-81
2022/07/20 08:50:29;;;;;;;1.38;0.90;;;;;;;43.23;14.49;98708.84;4994468;28;20487;-81
2022/07/20 08:52:56;;;;;;;0.40;0.40;;;;;;;43.40;13.61;98711.47;4995406;28;20100;-82
2022/07/20 08:55:24;;;;;;;0.57;0.52;;;;;;;43.23;14.10;98700.16;4995045;28;20037;-80
2022/07/20 08:57:51;;;;;;;0.50;0.50;;;;;;;43.23;14.60;98709.63;4994598;28;20577;-81
2022/07/20 09:00:18;;;;;;;0.80;0.70;;;;;;;43.22;13.83;98698.63;4994874;28;20081;-81
2022/07/20 09:02:57;;;;;;;1.70;0.50;;;;;;;43.01;15.61;98704.25;4995030;28;20041;-81
2022/07/20 09:05:25;;;;;;;1.27;0.63;;;;;;;43.35;14.35;98707.34;4995041;28;20081;-80
2022/07/20 09:07:55;;;;;;;1.27;0.75;;;;;;;43.40;14.41;98697.78;4984326;28;20034;-81
2022/07/20 09:10:31;;;;;;;0.70;0.47;;;;;;;43.61;14.09;98704.47;4980351;28;20027;-81
2022/07/20 09:13:03;;;;;;;0.50;0.50;;;;;;;43.74;14.38;98690.03;4986345;28;20391;-82
2022/07/20 09:15:37;;;;;;;1.20;0.80;;;;;;;43.74;14.75;98692.16;5018411;28;20405;-82
2022/07/20 09:18:14;;;;;;;1.15;0.80;;;;;;;43.52;15.28;98699.13;4990063;28;20487;-82
2022/07/20 09:20:46;;;;;;;1.48;0.40;;;;;;;43.69;14.27;98696.72;5008773;28;20038;-81
2022/07/20 09:23:24;;;;;;;0.50;0.50;;;;;;;43.89;14.11;98698.16;4995208;28;20045;-81
2022/07/20 09:26:02;;;;;;;1.05;0.60;;;;;;;43.75;14.94;98688.72;4994528;28;20026;-81
2022/07/20 09:28:39;;;;;;;1.23;0.80;;;;;;;43.09;16.16;98687.81;4994792;28;20039;-82
2022/07/20 09:31:09;;;;;;;0.80;0.70;;;;;;;42.97;14.87;98697.25;4996902;28;20022;-82
2022/07/20 09:33:36;;;;;;;1.13;0.82;;;;;;;43.11;13.86;98684.38;4994691;28;20045;-81
2022/07/20 09:36:04;;;;;;;0.60;0.60;;;;;;;42.40;16.47;98689.94;5001228;28;20442;-81
2022/07/20 09:38:41;;;;;;;1.08;0.90;;;;;;;41.72;14.74;98676.91;5008851;28;20035;-80
2022/07/20 09:41:24;;;;;;;1.77;0.90;;;;;;;41.30;15.63;98682.06;4990956;28;20382;-79
2022/07/20 09:43:51;;;;;;;0.73;0.73;;;;;;;41.98;16.41;98675.00;4980666;28;20042;-80
2022/07/20 09:46:23;;;;;;;1.00;0.90;;;;;;;42.09;15.68;98681.97;4975208;28;20054;-80
2022/07/20 09:48:55;;;;;;;1.42;0.90;;;;;;;39.94;16.86;98684.00;4974960;28;20479;-80
2022/07/20 09:51:42;;;;;;;1.10;0.90;;;;;;;39.31;17.40;98674.53;4982403;28;20384;-81
2022/07/20 09:54:15;;;;;;;1.67;1.05;;;;;;;39.80;17.83;98679.38;4994164;28;20038;-80
2022/07/20 09:56:43;;;;;;;2.20;0.90;;;;;;;41.03;16.17;98682.31;4994455;28;20073;-82
2022/07/20 09:59:11;;;;;;;1.05;1.00;;;;;;;41.99;14.95;98673.66;4994068;28;20517;-82
2022/07/20 10:01:46;;;;;;;1.60;0.90;;;;;;;42.17;15.24;98674.25;4993923;28;20035;-81
2022/07/20 10:04:13;;;;;;;1.63;0.90;;;;;;;42.90;14.88;98674.75;4993520;28;20399;-81
2022/07/20 10:06:45;;;;;;;1.50;1.00;;;;;;;42.58;13.59;98675.50;4990046;28;20042;-81
2022/07/20 10:09:14;;;;;;;0.85;0.85;;;;;;;42.24;13.01;98671.53;4988045;28;20482;-83
2022/07/20 10:11:40;;;;;;;1.17;0.80;;;;;;;42.46;12.87;98674.06;4985872;28;20041;-82
2022/07/20 10:14:08;;;;;;;0.75;0.70;;;;;;;42.55;13.50;98667.94;4990306;28;20487;-82
2022/07/20 10:16:36;;;;;;;1.08;0.73;;;;;;;42.83;13.32;98666.72;4978505;28;20081;-82
2022/07/20 10:19:05;;;;;;;1.48;0.70;;;;;;;42.61;14.59;98671.53;4980410;28;20066;-82
2022/07/20 10:21:44;;;;;;;1.10;1.05;;;;;;;42.40;14.98;98663.94;4978076;28;20510;-82
2022/07/20 10:24:14;;;;;;;0.93;0.82;;;;;;;42.21;16.07;98661.06;4991055;28;20030;-81
2022/07/20 10:26:41;;;;;;;0.80;0.80;;;;;;;41.02;15.10;98658.47;4993496;28;20038;-82
2022/07/20 10:29:07;;;;;;;1.15;1.05;;;;;;;41.49;14.75;98650.41;4988199;28;20483;-82
2022/07/20 10:31:53;;;;;;;2.20;0.90;;;;;;;42.07;14.91;98658.63;4993300;28;20109;-83
2022/07/20 10:34:36;;;;;;;1.52;0.90;;;;;;;41.92;14.64;98662.75;4993540;28;20057;-82
2022/07/20 10:37:21;;;;;;;1.25;0.98;;;;;;;41.24;15.36;98666.13;4988087;28;20027;-81
2022/07/20 10:39:47;;;;;;;3.30;0.80;;;;;;;41.80;16.82;98658.44;4999946;28;20030;-81
2022/07/20 10:42:33;;;;;;;1.13;1.02;;;;;;;42.09;13.62;98661.75;4995326;28;20030;-82
2022/07/20 10:45:14;;;;;;;1.85;0.95;;;;;;;41.02;13.88;98666.34;4990466;28;20026;-81
2022/07/20 10:47:44;;;;;;;0.73;0.73;;;;;;;40.72;14.54;98663.44;4992604;28;20495;-81
2022/07/20 10:50:33;;;;;;;1.00;0.75;;;;;;;40.44;15.43;98663.66;4991813;28;20038;-81
2022/07/20 10:52:59;;;;;;;1.17;0.75;;;;;;;40.98;15.58;98666.66;4989951;28;20081;-82
2022/07/20 10:55:34;;;;;;;0.95;0.85;;;;;;;42.05;14.17;98656.28;4989847;28;20039;-81
2022/07/20 10:58:22;;;;;;;5.28;1.25;;;;;;;40.42;13.96;98659.72;4974480;28;20054;-81
2022/07/20 11:00:52;;;;;;;0.93;0.80;;;;;;;40.43;15.10;98652.63;4992819;28;20182;-82
2022/07/20 11:03:29;;;;;;;1.60;0.70;;;;;;;41.68;13.00;98657.03;4981604;28;20089;-83
2022/07/20 11:06:03;;;;;;;0.70;0.70;;;;;;;43.00;13.02;98653.53;4993523;28;20030;-82
2022/07/20 11:08:29;;;;;;;0.95;0.65;;;;;;;43.54;11.25;98658.88;4986871;28;20038;-81
2022/07/20 11:10:56;;;;;;;0.75;0.70;;;;;;;43.95;13.11;98655.38;4988995;28;20041;-84
2022/07/20 11:13:22;;;;;;;1.55;0.93;;;;;;;44.38;11.50;98647.06;4988519;28;20050;-82
2022/07/20 11:16:00;;;;;;;0.73;0.60;;;;;;;44.84;11.99;98648.34;4985289;28;20418;-82
2022/07/20 11:18:29;;;;;;;0.57;0.57;;;;;;;44.58;12.82;98643.44;4982174;28;20042;-84
2022/07/20 11:20:59;;;;;;;1.17;0.73;;;;;;;42.88;13.34;98654.25;4987074;28;20046;-83
2022/07/20 11:23:39;;;;;;;2.15;0.90;;;;;;;42.86;12.27;98651.94;4987543;28;20038;-82
2022/07/20 11:26:07;;;;;;;0.90;0.70;;;;;;;42.46;11.74;98650.97;4987570;28;20035;-82
2022/07/20 11:28:55;;;;;;;0.70;0.70;;;;;;;43.12;10.93;98645.44;4986555;28;20483;-83
2022/07/20 11:31:27;;;;;;;1.30;0.75;;;;;;;43.83;11.11;98637.47;4983047;28;20034;-82
2022/07/20 11:33:55;;;;;;;0.95;0.70;;;;;;;43.79;11.85;98639.94;4992018;28;20038;-83
2022/07/20 11:36:26;;;;;;;0.77;0.77;;;;;;;43.12;12.24;98642.56;4994588;28;20105;-82
2022/07/20 11:38:56;;;;;;;0.93;0.68;;;;;;;41.10;13.95;98644.28;4989305;28;20394;-82
2022/07/20 11:41:29;;;;;;;2.75;0.82;;;;;;;40.56;14.57;98635.56;4994516;28;20041;-83
2022/07/20 11:43:56;;;;;;;1.80;0.70;;;;;;;41.32;13.72;98636.19;4995065;28;20480;-82